Latest Weather Observations for Wangaratta

IDV60801

Issued at 5:22 pm EST Friday 22 June 2018 (issued every 10 minutes, with the page automatically refreshed every 10 minutes)

About weather observations | Map of weather stations | Latest weather observations for VIC | Other Formats
Station Details ID: 082138 Name: WANGARATTA AERO Lat: -36.42 Lon: 146.31 Height: 152.6 m
Data from the previous 72 hours. | See also: Recent months at Wangaratta
Date/Time
EST
Temp
°C
App
Temp
°C
Dew
Point
°C
Rel
Hum
%
Delta-T
°C
Wind Press
QNH
hPa
Press
MSL
hPa
Rain since
9am
mm
Dir  Spd
km/h
Gust
km/h
Spd
kts
Gust
kts
22/05:00pm 9.7 7.6 5.9 77 1.7 E 6 6 3 3 1027.2 1027.5 0.0
22/04:30pm 11.0 10.2 6.4 73 2.2 CALM 0 4 0 2 1027.1 1027.4 0.0
22/04:00pm 11.7 9.5 6.4 70 2.5 E 7 9 4 5 1027.2 1027.5 0.0
22/03:30pm 11.6 9.4 6.1 69 2.6 NE 7 9 4 5 1027.2 1027.5 0.0
22/03:00pm 12.5 10.4 5.9 64 3.1 NNE 6 9 3 5 1027.2 1027.5 0.0
22/02:30pm 12.5 10.4 5.7 63 3.2 NE 6 9 3 5 1027.3 1027.6 0.0
22/02:00pm 12.7 10.7 6.3 65 3.0 NNE 6 11 3 6 1027.4 1027.7 0.0
22/01:30pm 12.1 10.8 6.2 67 2.8 NE 2 9 1 5 1027.7 1028.0 0.0
22/01:00pm 11.3 10.0 6.2 71 2.4 NNE 2 7 1 4 1028.0 1028.3 0.0
22/12:34pm 9.8 7.5 5.8 76 1.9 NNE 7 9 4 5 1028.3 1028.6 0.0
22/12:30pm 9.7 7.4 5.7 76 1.8 NE 7 9 4 5 1028.4 1028.7 0.0
22/12:15pm 9.8 7.7 5.6 75 1.9 NE 6 9 3 5 1028.6 1028.9 0.0
22/12:00pm 9.4 8.1 5.8 78 1.6 ENE 2 7 1 4 1028.8 1029.1 0.0
22/11:30am 7.5 5.3 5.1 85 1.1 SE 6 9 3 5 1029.3 1029.6 0.0
22/11:00am 6.5 4.0 4.7 88 0.8 ESE 7 11 4 6 1029.8 1030.2 0.0
22/10:30am 5.9 4.9 5.8 99 0.0 CALM 0 0 0 0 1030.1 1030.5 0.0
22/10:00am 4.7 3.5 4.6 99 0.0 CALM 0 0 0 0 1030.0 1030.4 0.0
22/09:42am 3.3 1.8 3.2 99 0.0 CALM 0 0 0 0 1029.9 1030.3 0.0
22/09:37am 3.2 1.7 3.1 99 0.0 CALM 0 0 0 0 1029.9 1030.3 0.0
22/09:30am 2.6 1.0 2.5 99 0.0 CALM 0 0 0 0 1029.9 1030.3 0.0
22/09:21am 1.6 -0.2 1.5 99 0.0 CALM 0 0 0 0 1030.0 1030.4 0.0
22/09:14am 1.5 -0.3 1.4 99 0.0 CALM 0 0 0 0 1029.8 1030.2 0.0
22/09:00am 0.9 -1.0 0.8 99 0.0 CALM 0 0 0 0 1029.6 1030.0 0.0
22/08:37am -0.4 -2.5 -0.5 99 0.0 CALM 0 0 0 0 1029.5 1029.8 0.0
22/08:30am -0.6 -2.7 -0.7 99 0.0 CALM 0 0 0 0 1029.5 1029.8 0.0
22/08:00am -1.0 -3.1 -1.1 99 0.0 CALM 0 0 0 0 1029.4 1029.7 0.0
22/07:30am -1.5 -3.7 -1.6 99 0.0 CALM 0 0 0 0 1029.2 1029.5 0.0
22/07:00am -1.1 -3.3 -1.2 99 0.0 CALM 0 0 0 0 1028.8 1029.1 0.0
22/06:30am -0.8 -2.9 -0.9 99 0.0 CALM 0 0 0 0 1028.7 1029.0 0.0
22/06:00am -0.5 -2.6 -0.6 99 0.0 CALM 0 0 0 0 1028.4 1028.7 0.0
22/05:30am -0.6 -2.7 -0.7 99 0.0 CALM 0 0 0 0 1028.3 1028.6 0.0
22/05:12am -0.6 -2.7 -0.7 99 0.0 CALM 0 0 0 0 1028.3 1028.6 0.0
22/05:09am -0.5 -2.6 -0.6 99 0.0 CALM 0 0 0 0 1028.3 1028.6 0.0
22/05:06am -0.2 -2.2 -0.3 99 0.0 CALM 0 0 0 0 1028.3 1028.6 0.0
22/05:00am -0.3 -2.3 -0.4 99 0.0 CALM 0 0 0 0 1028.4 1028.7 0.0
22/04:38am 0.0 -2.0 -0.1 99 0.0 CALM 0 0 0 0 1028.4 1028.7 0.0
22/04:30am 0.1 -1.9 0.0 99 0.0 CALM 0 0 0 0 1028.5 1028.8 0.0
22/04:10am -0.3 -2.3 -0.4 99 0.0 CALM 0 0 0 0 1028.5 1028.8 0.0
22/04:08am -0.4 -2.5 -0.5 99 0.0 CALM 0 0 0 0 1028.5 1028.8 0.0
22/04:00am -0.2 -2.2 -0.3 99 0.0 CALM 0 4 0 2 1028.4 1028.7 0.0
22/03:30am 0.0 -3.1 -0.1 99 0.0 SSW 6 6 3 3 1028.5 1028.8 0.0
22/03:00am -0.2 -2.2 -0.3 99 0.0 CALM 0 0 0 0 1028.5 1028.8 0.0
22/02:54am 0.0 -2.0 -0.1 99 0.0 CALM 0 0 0 0 1028.5 1028.8 0.0
22/02:33am 0.7 -2.3 0.6 99 0.0 SSE 6 6 3 3 1028.6 1028.9 0.0
22/02:30am 0.9 -2.1 0.8 99 0.0 S 6 6 3 3 1028.6 1028.9 0.0
22/02:19am 1.3 -1.3 1.2 99 0.0 SSW 4 6 2 3 1028.7 1029.0 0.0
22/02:12am 0.9 -2.1 0.8 99 0.0 SW 6 9 3 5 1028.7 1029.0 0.0
22/02:07am 0.5 -2.8 0.4 99 0.0 SW 7 9 4 5 1028.7 1029.0 0.0
22/02:00am 0.2 -3.1 0.1 99 0.0 WSW 7 7 4 4 1028.7 1029.0 0.0
22/01:56am -0.2 -3.6 -0.3 99 0.0 WSW 7 7 4 4 1028.7 1029.0 0.0
22/01:30am -0.2 -3.4 -0.3 99 0.0 SSW 6 7 3 4 1028.5 1028.8 0.0
22/01:00am 0.2 -1.8 0.1 99 0.0 CALM 0 6 0 3 1028.7 1029.0 0.0
22/12:56am 0.7 -1.6 0.6 99 0.0 SSE 2 6 1 3 1028.7 1029.0 0.0
22/12:53am 0.3 -2.4 0.2 99 0.0 SSE 4 6 2 3 1028.7 1029.0 0.0
22/12:30am 1.1 -1.9 1.0 99 0.0 SE 6 7 3 4 1028.8 1029.1 0.0
22/12:00am 1.2 -1.8 1.1 99 0.0 SW 6 7 3 4 1029.0 1029.3 0.0
 
Date/Time
EST
Temp
°C
App
Temp
°C
Dew
Point
°C
Rel
Hum
%
Delta-T
°C
Wind Press
QNH
hPa
Press
MSL
hPa
Rain since
9am
mm
Dir  Spd
km/h
Gust
km/h
Spd
kts
Gust
kts
21/11:30pm 2.8 0.1 2.7 99 0.0 SSW 6 7 3 4 1028.9 1029.2 0.0
21/11:00pm 3.1 1.6 3.0 99 0.0 CALM 0 0 0 0 1029.1 1029.4 0.0
21/10:30pm 2.2 0.5 2.1 99 0.0 CALM 0 0 0 0 1029.0 1029.3 0.0
21/10:00pm 3.0 1.5 2.9 99 0.0 CALM 0 0 0 0 1029.1 1029.4 0.0
21/09:30pm 3.7 2.3 3.6 99 0.0 CALM 0 0 0 0 1028.9 1029.2 0.0
21/09:00pm 3.6 2.2 3.5 99 0.0 CALM 0 0 0 0 1028.9 1029.2 0.0
21/08:30pm 3.8 2.4 3.5 98 0.1 CALM 0 0 0 0 1028.8 1029.1 0.0
21/08:16pm 4.1 2.7 3.8 98 0.1 CALM 0 0 0 0 1028.7 1029.0 0.0
21/08:00pm 5.3 4.2 5.0 98 0.1 CALM 0 0 0 0 1028.6 1028.9 0.0
21/07:30pm 5.5 4.3 4.8 95 0.3 CALM 0 0 0 0 1028.5 1028.8 0.0
21/07:00pm 6.4 5.3 5.2 92 0.5 CALM 0 0 0 0 1028.3 1028.6 0.0
21/06:30pm 7.5 5.3 5.5 87 0.9 WNW 6 6 3 3 1028.1 1028.4 0.0
21/06:00pm 8.0 6.5 5.1 82 1.3 SW 2 7 1 4 1027.8 1028.1 0.0
21/05:30pm 10.7 9.9 6.5 75 2.0 CALM 0 6 0 3 1027.5 1027.8 0.0
21/05:00pm 12.2 10.3 6.5 68 2.7 E 6 7 3 4 1027.3 1027.6 0.0
21/04:30pm 13.3 11.5 7.1 66 3.0 E 6 7 3 4 1027.4 1027.7 0.0
21/04:00pm 13.0 10.8 6.4 64 3.2 ENE 7 9 4 5 1027.5 1027.8 0.0
21/03:30pm 13.7 11.5 5.3 57 4.0 NNE 6 9 3 5 1027.4 1027.7 0.0
21/03:00pm 14.4 12.1 5.0 53 4.4 NE 6 9 3 5 1027.5 1027.8 0.0
21/02:30pm 14.2 11.8 5.3 55 4.2 ENE 7 11 4 6 1027.5 1027.8 0.0
21/02:00pm 14.1 12.6 5.2 55 4.2 NNE 2 9 1 5 1027.7 1028.0 0.0
21/01:30pm 13.5 11.0 4.9 56 4.0 NNE 7 11 4 6 1028.0 1028.3 0.0
21/01:00pm 13.1 11.0 6.0 62 3.4 NNE 6 7 3 4 1028.3 1028.6 0.0
21/12:30pm 12.7 11.4 5.8 63 3.3 E 2 7 1 4 1028.7 1029.0 0.0
21/12:00pm 11.4 9.9 5.1 65 2.9 ENE 2 7 1 4 1029.2 1029.5 0.0
21/11:30am 9.6 8.1 4.8 72 2.2 SSE 2 6 1 3 1029.6 1030.0 0.0
21/11:00am 8.5 6.1 5.3 80 1.4 SSE 7 11 4 6 1029.8 1030.2 0.0
21/10:30am 7.6 5.4 5.4 86 1.0 S 6 9 3 5 1030.1 1030.5 0.0
21/10:00am 6.5 4.3 5.5 93 0.4 SE 6 7 3 4 1030.1 1030.5 0.0
21/09:30am 4.9 2.4 4.8 99 0.0 SSE 7 9 4 5 1030.0 1030.4 0.0
21/09:00am 3.8 2.0 3.7 99 0.0 S 2 9 1 5 1029.8 1030.2 0.0
21/08:33am 1.7 0.0 1.6 99 0.0 CALM 0 0 0 0 1029.8 1030.2 0.0
21/08:30am 1.3 -0.5 1.2 99 0.0 CALM 0 0 0 0 1029.8 1030.2 0.0
21/08:29am 1.3 -0.5 1.2 99 0.0 CALM 0 0 0 0 1029.8 1030.2 0.0
21/08:02am -0.7 -2.8 -0.8 99 0.0 CALM 0 0 0 0 1029.6 1030.0 0.0
21/08:00am -0.8 -2.9 -0.9 99 0.0 CALM 0 0 0 0 1029.5 1029.8 0.0
21/07:56am -1.3 -3.5 -1.4 99 0.0 CALM 0 0 0 0 1029.5 1029.8 0.0
21/07:36am -0.6 -2.7 -0.7 99 0.0 CALM 0 0 0 0 1029.2 1029.5 0.0
21/07:30am -0.4 -2.5 -0.5 99 0.0 CALM 0 0 0 0 1029.2 1029.5 0.0
21/07:29am -0.4 -2.5 -0.5 99 0.0 CALM 0 0 0 0 1029.2 1029.5 0.0
21/07:10am -0.8 -2.9 -0.9 99 0.0 CALM 0 0 0 0 1029.0 1029.3 0.0
21/07:03am -0.5 -2.6 -0.6 99 0.0 CALM 0 0 0 0 1029.0 1029.3 0.0
21/07:00am -0.5 -2.6 -0.6 99 0.0 CALM 0 0 0 0 1029.0 1029.3 0.0
21/06:54am 0.1 -1.9 0.0 99 0.0 CALM 0 4 0 2 1029.0 1029.3 0.0
21/06:30am -0.1 -3.3 -0.2 99 0.0 S 6 6 3 3 1028.8 1029.1 0.0
21/06:08am -0.2 -3.4 -0.3 99 0.0 S 6 6 3 3 1028.6 1028.9 0.0
21/06:07am 0.0 -3.1 -0.1 99 0.0 S 6 7 3 4 1028.6 1028.9 0.0
21/06:00am 0.1 -3.0 0.0 99 0.0 SSE 6 7 3 4 1028.5 1028.8 0.0
21/05:30am 0.4 -1.5 0.3 99 0.0 CALM 0 0 0 0 1028.3 1028.6 0.0
21/05:00am 0.3 -2.0 0.2 99 0.0 S 2 6 1 3 1028.2 1028.5 0.0
21/04:53am 0.6 -2.4 0.5 99 0.0 SSW 6 7 3 4 1028.2 1028.5 0.0
21/04:31am 0.2 -2.1 0.1 99 0.0 SSW 2 7 1 4 1028.1 1028.4 0.0
21/04:30am 0.0 -2.4 -0.1 99 0.0 SSW 2 7 1 4 1028.1 1028.4 0.0
21/04:29am 0.0 -2.4 -0.1 99 0.0 SSW 2 7 1 4 1028.1 1028.4 0.0
21/04:13am 1.1 -1.5 1.0 99 0.0 SSW 4 6 2 3 1028.0 1028.3 0.0
21/04:04am 1.3 -1.3 1.2 99 0.0 SSW 4 6 2 3 1028.0 1028.3 0.0
21/04:00am 0.9 -2.1 0.8 99 0.0 SSW 6 6 3 3 1028.1 1028.4 0.0
21/03:53am 0.3 -2.8 0.2 99 0.0 SSW 6 7 3 4 1028.2 1028.5 0.0
21/03:30am 0.5 -1.4 0.4 99 0.0 CALM 0 0 0 0 1028.3 1028.6 0.0
21/03:00am 1.3 -0.5 1.2 99 0.0 CALM 0 0 0 0 1028.3 1028.6 0.0
21/02:47am 0.2 -1.8 0.1 99 0.0 CALM 0 0 0 0 1028.4 1028.7 0.0
21/02:30am 1.6 -0.2 1.5 99 0.0 CALM 0 0 0 0 1028.5 1028.8 0.0
21/02:24am 1.6 -0.2 1.5 99 0.0 CALM 0 0 0 0 1028.5 1028.8 0.0
21/02:19am 1.8 0.1 1.7 99 0.0 CALM 0 0 0 0 1028.5 1028.8 0.0
21/02:00am 0.5 -1.4 0.4 99 0.0 CALM 0 0 0 0 1028.6 1028.9 0.0
21/01:47am 0.8 -1.1 0.7 99 0.0 CALM 0 0 0 0 1028.6 1028.9 0.0
21/01:30am 1.9 0.2 1.8 99 0.0 CALM 0 0 0 0 1028.6 1028.9 0.0
21/01:00am 2.3 0.7 2.2 99 0.0 CALM 0 0 0 0 1028.5 1028.8 0.0
21/12:30am 2.9 1.4 2.8 99 0.0 CALM 0 0 0 0 1028.8 1029.1 0.0
21/12:00am 2.2 0.5 2.1 99 0.0 CALM 0 6 0 3 1028.6 1028.9 0.0
 
Date/Time
EST
Temp
°C
App
Temp
°C
Dew
Point
°C
Rel
Hum
%
Delta-T
°C
Wind Press
QNH
hPa
Press
MSL
hPa
Rain since
9am
mm
Dir  Spd
km/h
Gust
km/h
Spd
kts
Gust
kts
20/11:30pm 2.3 -0.7 2.2 99 0.0 SW 7 7 4 4 1028.7 1029.0 0.0
20/11:00pm 3.4 0.8 3.3 99 0.0 SSE 6 7 3 4 1028.5 1028.8 0.0
20/10:30pm 3.8 1.3 3.7 99 0.0 SW 6 7 3 4 1028.6 1028.9 0.0
20/10:00pm 3.4 2.0 3.3 99 0.0 CALM 0 0 0 0 1028.7 1029.0 0.0
20/09:38pm 4.7 3.5 4.6 99 0.0 CALM 0 0 0 0 1028.5 1028.8 0.0
20/09:30pm 5.0 3.9 4.9 99 0.0 CALM 0 0 0 0 1028.5 1028.8 0.0
20/09:16pm 4.5 3.3 4.4 99 0.0 CALM 0 0 0 0 1028.5 1028.8 0.0
20/09:00pm 4.9 3.7 4.6 98 0.1 CALM 0 0 0 0 1028.5 1028.8 0.0
20/08:57pm 5.2 4.1 5.1 99 0.0 CALM 0 4 0 2 1028.4 1028.7 0.0
20/08:30pm 5.4 3.1 4.8 96 0.3 SSE 6 7 3 4 1028.5 1028.8 0.0
20/08:00pm 6.6 4.5 6.0 96 0.3 S 6 6 3 3 1028.4 1028.7 0.0
20/07:30pm 6.7 5.5 6.3 97 0.2 SW 2 7 1 4 1028.3 1028.6 0.0
20/07:00pm 6.5 4.4 5.8 95 0.3 WSW 6 7 3 4 1028.1 1028.4 0.0
20/06:30pm 7.2 6.3 6.0 92 0.5 CALM 0 0 0 0 1027.9 1028.2 0.0
20/06:00pm 7.9 6.9 5.7 86 1.0 CALM 0 0 0 0 1027.9 1028.2 0.0
20/05:30pm 8.9 8.0 6.2 83 1.3 CALM 0 0 0 0 1027.9 1028.2 0.0
20/05:00pm 10.0 9.0 5.8 75 1.9 CALM 0 0 0 0 1027.8 1028.1 0.0
20/04:30pm 11.4 10.5 6.1 70 2.5 CALM 0 0 0 0 1027.8 1028.1 0.0
20/04:00pm 12.6 11.7 6.2 65 3.0 CALM 0 0 0 0 1027.8 1028.1 0.0
20/03:30pm 13.4 11.3 6.0 61 3.5 ESE 6 9 3 5 1027.8 1028.1 0.0
20/03:00pm 14.6 13.6 5.7 55 4.2 CALM 0 0 0 0 1027.9 1028.2 0.0
20/02:30pm 13.7 11.4 4.8 55 4.2 ESE 6 7 3 4 1027.9 1028.2 0.0
20/02:00pm 13.4 11.0 5.1 57 3.9 ENE 7 9 4 5 1028.1 1028.4 0.0
20/01:30pm 13.3 11.0 4.7 56 4.0 N 6 9 3 5 1028.4 1028.7 0.0
20/01:00pm 12.7 9.8 4.9 59 3.6 ENE 9 11 5 6 1028.6 1028.9 0.0
20/12:30pm 12.3 10.6 5.9 65 3.0 E 4 7 2 4 1029.0 1029.3 0.0
20/12:00pm 10.8 9.4 5.3 69 2.5 WSW 2 7 1 4 1029.5 1029.8 0.0
20/11:30am 10.0 8.5 5.0 71 2.3 NE 2 7 1 4 1029.8 1030.2 0.0
20/11:00am 8.8 6.8 4.6 75 1.9 SSE 4 7 2 4 1030.0 1030.4 0.0
20/10:30am 8.0 6.0 4.4 78 1.6 SE 4 7 2 4 1030.0 1030.4 0.0
20/10:00am 7.3 6.1 4.6 83 1.2 CALM 0 0 0 0 1030.1 1030.5 0.0
20/09:30am 5.7 4.2 5.0 95 0.3 SSE 2 6 1 3 1030.1 1030.5 0.0
20/09:00am 4.4 3.1 4.3 99 0.0 CALM 0 0 0 0 1029.9 1030.3 0.0
20/08:30am 1.6 -0.2 1.5 99 0.0 CALM 0 0 0 0 1029.6 1030.0 0.0
20/08:08am 1.5 -0.3 1.4 99 0.0 CALM 0 0 0 0 1029.5 1029.8 0.0
20/08:00am 0.9 -1.0 0.8 99 0.0 CALM 0 0 0 0 1029.5 1029.8 0.0
20/07:49am 0.7 -1.2 0.6 99 0.0 CALM 0 0 0 0 1029.5 1029.8 0.0
20/07:40am -0.1 -2.1 -0.2 99 0.0 CALM 0 0 0 0 1029.4 1029.7 0.0
20/07:35am -0.3 -2.3 -0.4 99 0.0 CALM 0 0 0 0 1029.4 1029.7 0.0
20/07:30am -0.8 -2.9 -0.9 99 0.0 CALM 0 0 0 0 1029.4 1029.7 0.0
20/07:22am -0.5 -2.6 -0.6 99 0.0 CALM 0 0 0 0 1029.3 1029.6 0.0
20/07:00am -0.2 -3.4 -0.3 99 0.0 SSW 6 7 3 4 1029.1 1029.4 0.0
20/06:36am 0.3 -2.8 0.2 99 0.0 S 6 7 3 4 1028.9 1029.2 0.0
20/06:30am 0.5 -2.6 0.4 99 0.0 SSW 6 7 3 4 1028.8 1029.1 0.0
20/06:24am 0.7 -2.3 0.6 99 0.0 SSW 6 7 3 4 1028.7 1029.0 0.0
20/06:00am 0.2 -2.9 0.1 99 0.0 S 6 6 3 3 1028.5 1028.8 0.0
20/05:59am 0.3 -2.8 0.2 99 0.0 S 6 7 3 4 1028.5 1028.8 0.0
20/05:42am 0.9 -2.1 0.8 99 0.0 SSW 6 7 3 4 1028.3 1028.6 0.0
20/05:30am 0.9 -2.3 0.8 99 0.0 SSW 7 9 4 5 1028.2 1028.5 0.0
20/05:22am 0.7 -2.3 0.6 99 0.0 S 6 9 3 5 1028.1 1028.4 0.0
20/05:00am 1.0 -2.0 0.9 99 0.0 SSW 6 7 3 4 1028.0 1028.3 0.0
20/04:30am 1.2 -1.9 1.1 99 0.0 S 7 9 4 5 1027.7 1028.0 0.0
20/04:00am 1.6 -1.5 1.5 99 0.0 SSW 7 9 4 5 1027.8 1028.1 0.0
20/03:30am 1.6 -1.3 1.5 99 0.0 S 6 7 3 4 1027.9 1028.2 0.0
20/03:04am 1.4 -1.5 1.3 99 0.0 S 6 7 3 4 1027.8 1028.1 0.0
20/03:00am 1.4 -1.5 1.3 99 0.0 S 6 7 3 4 1027.8 1028.1 0.0
20/02:30am 1.6 -0.9 1.5 99 0.0 SSE 4 6 2 3 1027.7 1028.0 0.0
20/02:00am 1.8 0.1 1.7 99 0.0 CALM 0 0 0 0 1027.8 1028.1 0.0
20/01:49am 1.8 0.1 1.7 99 0.0 CALM 0 0 0 0 1027.8 1028.1 0.0
20/01:35am 1.5 -0.6 1.4 99 0.0 SW 2 7 1 4 1027.8 1028.1 0.0
20/01:30am 1.4 -1.5 1.3 99 0.0 SW 6 9 3 5 1027.8 1028.1 0.0
20/01:00am 2.1 -0.3 2.0 99 0.0 WSW 4 6 2 3 1027.9 1028.2 0.0
20/12:30am 0.8 -1.1 0.7 99 0.0 CALM 0 0 0 0 1028.3 1028.6 0.0
20/12:14am 0.9 -1.3 0.8 99 0.0 WSW 2 7 1 4 1028.4 1028.7 0.0
20/12:00am 2.0 0.3 1.9 99 0.0 CALM 0 0 0 0 1028.4 1028.7 0.0
 
Date/Time
EST
Temp
°C
App
Temp
°C
Dew
Point
°C
Rel
Hum
%
Delta-T
°C
Wind Press
QNH
hPa
Press
MSL
hPa
Rain since
9am
mm
Dir  Spd
km/h
Gust
km/h
Spd
kts
Gust
kts
19/11:30pm 2.6 -0.3 2.5 99 0.0 SW 7 9 4 5 1028.7 1029.0 0.0
19/11:00pm 1.8 -1.1 1.5 98 0.1 ESE 6 7 3 4 1028.4 1028.7 0.0
19/10:30pm 2.3 0.2 1.9 97 0.2 SSW 2 7 1 4 1029.0 1029.3 0.0
19/10:00pm 2.3 -0.6 1.7 96 0.2 SW 6 6 3 3 1029.0 1029.3 0.0
19/09:30pm 1.9 0.1 0.9 93 0.4 CALM 0 0 0 0 1028.8 1029.1 0.0
19/09:00pm 2.7 0.9 1.2 90 0.6 CALM 0 0 0 0 1028.7 1029.0 0.0
19/08:30pm 3.9 1.9 2.1 88 0.7 SE 2 7 1 4 1028.3 1028.6 0.0
19/08:00pm 3.6 0.6 2.0 89 0.6 SE 7 9 4 5 1027.8 1028.1 0.0
19/07:30pm 5.1 3.6 3.0 86 0.9 CALM 0 0 0 0 1027.8 1028.1 0.0
19/07:00pm 4.6 1.6 2.1 84 1.0 WSW 7 9 4 5 1027.6 1027.9 0.0
19/06:30pm 6.2 4.6 2.7 78 1.5 CALM 0 0 0 0 1027.1 1027.4 0.0
19/06:00pm 7.6 5.3 2.7 71 2.1 W 4 7 2 4 1026.8 1027.1 0.0
19/05:30pm 9.7 8.2 3.0 63 2.9 CALM 0 0 0 0 1026.7 1027.0 0.0

Other Formats:

Comma delimited format used in spreadsheet applications
http://www.bom.gov.au/fwo/IDV60801/IDV60801.94889.axf

JavaScript Object Notation format (JSON) in row-major order
http://www.bom.gov.au/fwo/IDV60801/IDV60801.94889.json